createdAt,value
2023-04-04T00:01:47.838Z,59.20
2023-04-04T00:04:24.083Z,59.24
2023-04-04T00:07:16.478Z,59.26
2023-04-04T00:09:59.293Z,59.40
2023-04-04T00:12:30.022Z,59.47
2023-04-04T00:15:07.511Z,59.63
2023-04-04T00:18:14.898Z,59.73
2023-04-04T00:20:52.963Z,59.84
2023-04-04T00:23:42.471Z,60.02
2023-04-04T00:26:26.041Z,60.12
2023-04-04T00:32:24.063Z,60.28
2023-04-04T00:34:55.121Z,60.49
2023-04-04T00:37:29.965Z,60.41
2023-04-04T00:40:00.890Z,60.43
2023-04-04T00:42:31.056Z,60.39
2023-04-04T00:45:07.793Z,60.41
2023-04-04T00:47:38.374Z,60.44
2023-04-04T00:50:14.278Z,60.37
2023-04-04T00:52:55.509Z,60.27
2023-04-04T00:56:01.434Z,60.27
2023-04-04T00:58:35.267Z,60.28
2023-04-04T01:01:18.722Z,60.29
2023-04-04T01:03:51.770Z,60.23
2023-04-04T01:06:26.696Z,60.16
2023-04-04T01:09:04.314Z,60.17
2023-04-04T01:11:50.425Z,60.20
2023-04-04T01:14:36.140Z,60.05
2023-04-04T01:17:07.429Z,60.04
2023-04-04T01:20:11.818Z,59.97
2023-04-04T01:22:53.278Z,59.97
2023-04-04T01:25:33.030Z,59.95
2023-04-04T01:28:07.714Z,59.79
2023-04-04T01:30:45.014Z,59.77
2023-04-04T01:33:28.427Z,59.58
2023-04-04T01:36:15.658Z,59.33
2023-04-04T01:39:09.414Z,59.10
2023-04-04T01:41:42.958Z,58.84
2023-04-04T01:44:19.552Z,58.34
2023-04-04T01:46:58.168Z,57.85
2023-04-04T01:49:31.463Z,57.47
2023-04-04T01:52:12.511Z,57.16
2023-04-04T01:54:45.029Z,56.72
2023-04-04T01:57:20.174Z,56.55
2023-04-04T01:59:53.009Z,56.17
2023-04-04T02:02:26.046Z,55.79
2023-04-04T02:05:00.654Z,55.43
2023-04-04T02:07:33.148Z,55.22
2023-04-04T02:10:04.618Z,54.92
2023-04-04T02:12:37.445Z,54.77
2023-04-04T02:15:08.178Z,54.61
2023-04-04T02:17:38.225Z,54.14
2023-04-04T02:20:11.387Z,53.81
2023-04-04T02:22:42.080Z,53.66
2023-04-04T02:25:12.868Z,53.43
2023-04-04T02:27:43.147Z,53.29
2023-04-04T02:30:14.061Z,53.02
2023-04-04T02:32:47.772Z,52.90
2023-04-04T02:35:20.341Z,52.89
2023-04-04T02:37:50.335Z,52.74
2023-04-04T02:40:29.785Z,52.67
2023-04-04T02:43:02.368Z,52.57
2023-04-04T02:45:35.583Z,52.58
2023-04-04T02:48:15.780Z,52.72
2023-04-04T02:50:56.125Z,52.83
2023-04-04T02:53:26.241Z,52.90
2023-04-04T02:55:58.988Z,52.81
2023-04-04T02:58:29.433Z,52.74
2023-04-04T03:01:02.034Z,52.95
2023-04-04T03:03:33.587Z,52.94
2023-04-04T03:06:05.732Z,52.99
2023-04-04T03:08:38.105Z,52.93
2023-04-04T03:11:23.000Z,52.91
2023-04-04T03:13:55.795Z,52.96
2023-04-04T03:16:33.239Z,52.99
2023-04-04T03:19:04.620Z,52.94
2023-04-04T03:21:34.735Z,52.91
2023-04-04T03:24:08.790Z,52.88
2023-04-04T03:26:42.797Z,52.96
2023-04-04T03:29:27.392Z,52.92
2023-04-04T03:31:57.587Z,53.00
2023-04-04T03:34:32.239Z,53.03
2023-04-04T03:37:05.180Z,52.97
2023-04-04T03:39:37.838Z,52.97
2023-04-04T03:42:10.363Z,52.90
2023-04-04T03:44:47.656Z,52.88
2023-04-04T03:47:26.283Z,52.93
2023-04-04T03:50:01.628Z,53.05
2023-04-04T03:52:42.191Z,53.06
2023-04-04T03:55:12.297Z,53.07
2023-04-04T03:57:52.435Z,52.98
2023-04-04T04:00:23.794Z,52.86
2023-04-04T04:02:59.940Z,52.91
2023-04-04T04:05:32.980Z,52.97
2023-04-04T04:08:11.997Z,52.86
2023-04-04T04:10:42.305Z,52.81
2023-04-04T04:13:18.275Z,52.78
2023-04-04T04:15:48.423Z,52.60
2023-04-04T04:18:28.127Z,52.58
2023-04-04T04:21:03.108Z,52.57
2023-04-04T04:23:38.578Z,52.58
2023-04-04T04:26:09.088Z,52.66
2023-04-04T04:28:40.343Z,52.66
2023-04-04T04:31:14.373Z,52.65
2023-04-04T04:33:50.607Z,52.52
2023-04-04T04:36:24.475Z,52.44
2023-04-04T04:39:04.430Z,52.47
2023-04-04T04:41:37.241Z,52.43
2023-04-04T04:44:15.566Z,52.37
2023-04-04T04:46:51.355Z,52.21
2023-04-04T04:49:22.188Z,52.36
2023-04-04T04:51:54.169Z,52.24
2023-04-04T04:54:30.163Z,52.18
2023-04-04T04:57:08.418Z,52.15
2023-04-04T04:59:50.714Z,52.24
2023-04-04T05:02:26.876Z,52.20
2023-04-04T05:05:05.757Z,52.18
2023-04-04T05:07:39.243Z,52.29
2023-04-04T05:10:13.395Z,52.28
2023-04-04T05:12:48.870Z,51.92
2023-04-04T05:15:33.473Z,51.96
2023-04-04T05:18:12.632Z,51.97
2023-04-04T05:20:43.831Z,51.98
2023-04-04T05:23:26.811Z,51.86
2023-04-04T05:25:57.732Z,51.92
2023-04-04T05:28:34.137Z,52.05
2023-04-04T05:31:10.895Z,51.81
2023-04-04T05:33:47.334Z,51.84
2023-04-04T05:36:32.362Z,51.93
2023-04-04T05:39:15.851Z,51.95
2023-04-04T05:41:57.611Z,51.64
2023-04-04T05:44:37.581Z,51.45
2023-04-04T05:47:10.910Z,51.34
2023-04-04T05:49:43.863Z,51.49
2023-04-04T05:52:18.037Z,51.41
2023-04-04T05:55:04.783Z,51.37
2023-04-04T05:57:51.333Z,51.26
2023-04-04T06:00:25.915Z,51.18
2023-04-04T06:03:05.254Z,50.91
2023-04-04T06:05:39.054Z,50.71
2023-04-04T06:08:21.701Z,50.62
2023-04-04T06:10:57.484Z,50.58
2023-04-04T06:13:32.022Z,50.62
2023-04-04T06:16:13.188Z,50.34
2023-04-04T06:18:43.610Z,50.10
2023-04-04T06:21:19.911Z,49.92
2023-04-04T06:23:53.460Z,49.63
2023-04-04T06:26:27.546Z,49.51
2023-04-04T06:29:05.619Z,49.36
2023-04-04T06:31:42.046Z,49.43
2023-04-04T06:34:32.675Z,49.22
2023-04-04T06:37:04.326Z,48.97
2023-04-04T06:39:39.932Z,48.82
2023-04-04T06:42:13.566Z,48.66
2023-04-04T06:44:49.229Z,48.19
2023-04-04T06:47:18.668Z,47.97
2023-04-04T06:49:48.272Z,47.88
2023-04-04T06:52:17.751Z,47.80
2023-04-04T06:54:47.334Z,47.78
2023-04-04T06:57:20.789Z,47.78
2023-04-04T06:59:54.124Z,47.67
2023-04-04T07:02:24.731Z,47.81
2023-04-04T07:04:55.508Z,48.19
2023-04-04T07:07:27.537Z,48.49
2023-04-04T07:09:57.256Z,47.95
2023-04-04T07:12:30.714Z,47.31
2023-04-04T07:15:07.214Z,46.84
2023-04-04T07:17:42.778Z,46.71
2023-04-04T07:20:15.106Z,46.71
2023-04-04T07:22:45.105Z,46.71
2023-04-04T07:25:21.526Z,46.76
2023-04-04T07:28:02.367Z,46.90
2023-04-04T07:30:40.314Z,46.94
2023-04-04T07:33:18.437Z,47.13
2023-04-04T07:35:52.407Z,47.24
2023-04-04T07:38:27.936Z,47.47
2023-04-04T07:41:03.722Z,47.72
2023-04-04T07:43:34.504Z,47.90
2023-04-04T07:46:06.840Z,47.94
2023-04-04T07:48:37.235Z,48.03
2023-04-04T07:51:07.068Z,47.96
2023-04-04T07:53:39.751Z,48.18
2023-04-04T07:56:09.903Z,47.87
2023-04-04T07:58:41.096Z,47.34
2023-04-04T08:01:10.970Z,47.46
2023-04-04T08:03:41.073Z,47.33
2023-04-04T08:06:11.645Z,46.93
2023-04-04T08:08:48.481Z,46.84
2023-04-04T08:11:19.028Z,46.81
2023-04-04T08:13:48.739Z,46.75
2023-04-04T08:16:18.719Z,46.71
2023-04-04T08:18:49.079Z,46.66
2023-04-04T08:21:19.451Z,46.87
2023-04-04T08:23:50.568Z,46.96
2023-04-04T08:26:20.234Z,47.06
2023-04-04T08:28:52.367Z,47.17
2023-04-04T08:31:23.922Z,47.02
2023-04-04T08:33:53.421Z,46.69
2023-04-04T08:36:23.425Z,46.38
2023-04-04T08:39:03.083Z,46.27
2023-04-04T08:41:46.059Z,46.16
2023-04-04T08:44:22.468Z,46.10
2023-04-04T08:46:53.256Z,45.56
2023-04-04T08:49:26.127Z,45.15
2023-04-04T08:52:00.100Z,44.92
2023-04-04T08:54:32.625Z,45.04
2023-04-04T08:57:04.401Z,44.75
2023-04-04T08:59:35.480Z,44.49
2023-04-04T09:02:11.482Z,44.35
2023-04-04T09:05:05.017Z,44.21
2023-04-04T09:07:46.519Z,44.03
2023-04-04T09:10:18.326Z,43.93
2023-04-04T09:12:55.509Z,43.38
2023-04-04T09:15:28.563Z,42.92
2023-04-04T09:18:06.780Z,43.01
2023-04-04T09:20:58.522Z,43.11
2023-04-04T09:24:03.712Z,43.23
2023-04-04T09:26:58.372Z,43.03
2023-04-04T09:29:28.392Z,42.87
2023-04-04T09:31:59.057Z,42.85
2023-04-04T09:34:31.213Z,43.02
2023-04-04T09:37:03.410Z,43.03
2023-04-04T09:39:35.800Z,42.91
2023-04-04T09:42:08.146Z,42.53
2023-04-04T09:44:40.054Z,42.11
2023-04-04T09:47:31.864Z,42.25
2023-04-04T09:50:07.496Z,42.14
2023-04-04T09:52:40.974Z,42.43
2023-04-04T09:55:11.822Z,42.26
2023-04-04T09:57:42.790Z,42.06
2023-04-04T10:00:20.565Z,41.97
2023-04-04T10:02:53.813Z,41.68
2023-04-04T10:05:24.647Z,41.46
2023-04-04T10:07:55.222Z,41.60
2023-04-04T10:10:34.794Z,41.49
2023-04-04T10:13:05.419Z,41.14
2023-04-04T10:15:38.930Z,41.05
2023-04-04T10:18:10.470Z,40.91
2023-04-04T10:20:41.647Z,40.77
2023-04-04T10:23:16.103Z,40.81
2023-04-04T10:25:49.831Z,40.98
2023-04-04T10:28:23.959Z,41.07
2023-04-04T10:31:06.990Z,40.99
2023-04-04T10:34:19.521Z,40.81
2023-04-04T10:37:03.739Z,40.57
2023-04-04T10:39:42.938Z,40.51
2023-04-04T10:42:18.822Z,40.56
2023-04-04T10:44:49.078Z,40.86
2023-04-04T10:47:27.401Z,40.69
2023-04-04T10:50:09.460Z,40.45
2023-04-04T10:52:45.112Z,40.54
2023-04-04T10:55:17.450Z,40.74
2023-04-04T10:57:52.980Z,40.78
2023-04-04T11:00:26.428Z,40.45
2023-04-04T11:03:01.455Z,40.46
2023-04-04T11:05:33.275Z,40.48
2023-04-04T11:08:09.912Z,40.35
2023-04-04T11:10:47.702Z,40.07
2023-04-04T11:13:36.173Z,39.89
2023-04-04T11:16:17.777Z,39.66
2023-04-04T11:18:52.067Z,39.84
2023-04-04T11:21:30.562Z,40.15
2023-04-04T11:24:06.031Z,39.95
2023-04-04T11:26:37.268Z,39.85
2023-04-04T11:29:16.210Z,39.97
2023-04-04T11:31:46.370Z,40.12
2023-04-04T11:34:37.966Z,40.09
2023-04-04T11:37:20.486Z,40.27
2023-04-04T11:39:57.136Z,40.22
2023-04-04T11:42:39.016Z,40.10
2023-04-04T11:45:16.724Z,40.15
2023-04-04T11:47:50.775Z,40.06
2023-04-04T11:50:22.022Z,39.99
2023-04-04T11:52:56.399Z,39.91
2023-04-04T11:55:27.206Z,39.90
2023-04-04T11:57:59.877Z,39.34
2023-04-04T12:00:43.141Z,39.07
2023-04-04T12:03:19.047Z,38.91
2023-04-04T12:05:50.261Z,39.14
2023-04-04T12:08:20.454Z,39.27
2023-04-04T12:10:52.446Z,39.32
2023-04-04T12:13:34.108Z,39.37
2023-04-04T12:16:04.440Z,39.10
2023-04-04T12:18:34.706Z,39.35
2023-04-04T12:21:07.971Z,39.47
2023-04-04T12:23:40.861Z,38.87
2023-04-04T12:26:14.810Z,38.85
2023-04-04T12:28:49.055Z,38.70
2023-04-04T12:31:21.520Z,38.54
2023-04-04T12:33:52.253Z,38.79
2023-04-04T12:36:30.838Z,38.64
2023-04-04T12:39:12.655Z,38.30
2023-04-04T12:42:01.009Z,38.47
2023-04-04T12:44:45.596Z,38.45
2023-04-04T12:47:24.693Z,38.75
2023-04-04T12:49:56.288Z,38.48
2023-04-04T12:52:35.784Z,38.47
2023-04-04T12:55:12.241Z,38.28
2023-04-04T12:57:45.975Z,38.20
2023-04-04T13:00:20.559Z,38.33
2023-04-04T13:02:55.945Z,38.65
2023-04-04T13:05:26.470Z,38.53
2023-04-04T13:08:14.586Z,38.38
2023-04-04T13:11:07.087Z,38.34
2023-04-04T13:13:44.321Z,38.54
2023-04-04T13:16:34.741Z,38.42
2023-04-04T13:19:09.887Z,38.22
2023-04-04T13:21:45.680Z,38.13
2023-04-04T13:24:16.246Z,38.39
2023-04-04T13:26:50.878Z,38.50
2023-04-04T13:29:28.332Z,38.41
2023-04-04T13:32:05.218Z,38.20
2023-04-04T13:34:44.149Z,38.29
2023-04-04T13:37:30.127Z,38.50
2023-04-04T13:40:03.852Z,38.43
2023-04-04T13:42:34.445Z,38.30
2023-04-04T13:45:07.130Z,38.61
2023-04-04T13:47:46.955Z,38.54
2023-04-04T13:50:24.179Z,38.58
2023-04-04T13:53:00.031Z,38.86
2023-04-04T13:56:18.323Z,38.98
2023-04-04T13:59:32.729Z,38.78
2023-04-04T14:02:16.502Z,38.86
2023-04-04T14:04:49.821Z,39.14
2023-04-04T14:07:24.204Z,39.02
2023-04-04T14:09:56.837Z,39.06
2023-04-04T14:12:37.656Z,39.20
2023-04-04T14:15:11.790Z,38.83
2023-04-04T14:17:50.338Z,38.69
2023-04-04T14:20:22.367Z,38.67
2023-04-04T14:22:57.995Z,38.64
2023-04-04T14:25:32.136Z,38.65
2023-04-04T14:28:06.529Z,38.73
2023-04-04T14:30:37.630Z,38.80
2023-04-04T14:33:11.348Z,38.91
2023-04-04T14:36:02.679Z,38.68
2023-04-04T14:38:47.104Z,38.50
2023-04-04T14:41:18.727Z,38.34
2023-04-04T14:43:52.922Z,38.13
2023-04-04T14:46:28.142Z,37.97
2023-04-04T14:49:23.427Z,37.97
2023-04-04T14:52:03.018Z,37.97
2023-04-04T14:54:36.648Z,38.16
2023-04-04T14:57:13.114Z,38.31
2023-04-04T14:59:56.613Z,38.20
2023-04-04T15:02:51.433Z,38.22
2023-04-04T15:05:45.519Z,38.41
2023-04-04T15:08:24.269Z,38.61
2023-04-04T15:11:12.995Z,38.67
2023-04-04T15:14:18.097Z,38.80
2023-04-04T15:17:08.708Z,38.55
2023-04-04T15:19:54.862Z,38.53
2023-04-04T15:22:43.860Z,38.51
2023-04-04T15:25:18.390Z,38.41
2023-04-04T15:27:53.504Z,38.38
2023-04-04T15:30:35.639Z,38.42
2023-04-04T15:33:21.609Z,38.58
2023-04-04T15:36:18.783Z,38.34
2023-04-04T15:38:57.049Z,38.35
2023-04-04T15:41:34.808Z,38.37
2023-04-04T15:44:09.669Z,38.38
2023-04-04T15:46:51.469Z,38.57
2023-04-04T15:49:28.769Z,38.57
2023-04-04T15:52:00.682Z,38.77
2023-04-04T15:54:42.018Z,38.64
2023-04-04T15:57:22.273Z,38.66
2023-04-04T16:00:01.092Z,38.70
2023-04-04T16:02:40.686Z,38.71
2023-04-04T16:05:19.843Z,38.88
2023-04-04T16:07:54.308Z,39.14
2023-04-04T16:10:47.017Z,39.33
2023-04-04T16:13:53.145Z,39.40
2023-04-04T16:16:47.614Z,39.41
2023-04-04T16:19:25.638Z,39.76
2023-04-04T16:22:15.361Z,39.95
2023-04-04T16:24:57.514Z,40.01
2023-04-04T16:27:40.292Z,40.20
2023-04-04T16:30:43.193Z,40.39
2023-04-04T16:33:39.386Z,40.52
2023-04-04T16:36:17.784Z,40.65
2023-04-04T16:39:02.590Z,40.88
2023-04-04T16:41:35.052Z,40.99
2023-04-04T16:44:13.646Z,41.10
2023-04-04T16:46:50.664Z,41.26
2023-04-04T16:49:32.655Z,41.22
2023-04-04T16:52:23.700Z,41.51
2023-04-04T16:55:18.635Z,41.65
2023-04-04T16:57:59.184Z,41.83
2023-04-04T17:01:24.085Z,41.95
2023-04-04T17:03:41.405Z,42.03
2023-04-04T17:06:30.893Z,42.09
2023-04-04T17:09:14.301Z,42.22
2023-04-04T17:11:57.313Z,42.31
2023-04-04T17:14:41.519Z,42.62
2023-04-04T17:17:19.200Z,42.59
2023-04-04T17:20:00.412Z,42.74
2023-04-04T17:22:51.321Z,42.89
2023-04-04T17:26:19.070Z,43.04
2023-04-04T17:29:48.758Z,43.12
2023-04-04T17:32:35.491Z,43.31
2023-04-04T17:35:09.771Z,43.36
2023-04-04T17:37:45.700Z,43.52
2023-04-04T17:40:26.931Z,43.52
2023-04-04T17:43:06.623Z,43.53
2023-04-04T17:46:21.704Z,43.49
2023-04-04T17:49:03.160Z,43.66
2023-04-04T17:51:48.363Z,43.86
2023-04-04T17:54:26.475Z,44.08
2023-04-04T17:57:03.815Z,44.07
2023-04-04T17:59:48.561Z,44.33
2023-04-04T18:02:20.929Z,44.37
2023-04-04T18:05:01.075Z,44.59
2023-04-04T18:07:41.539Z,44.80
2023-04-04T18:10:12.272Z,44.89
2023-04-04T18:12:44.996Z,44.96
2023-04-04T18:15:16.056Z,45.28
2023-04-04T18:17:47.307Z,45.24
2023-04-04T18:20:31.778Z,45.34
2023-04-04T18:23:09.967Z,45.51
2023-04-04T18:25:40.859Z,45.60
2023-04-04T18:28:17.164Z,45.73
2023-04-04T18:30:59.568Z,45.93
2023-04-04T18:33:31.260Z,45.80
2023-04-04T18:37:27.964Z,46.08
2023-04-04T18:40:08.702Z,46.47
2023-04-04T18:42:43.953Z,46.43
2023-04-04T18:45:14.656Z,46.51
2023-04-04T18:47:44.901Z,46.59
2023-04-04T18:50:15.934Z,46.54
2023-04-04T18:52:46.309Z,46.58
2023-04-04T18:55:16.245Z,46.80
2023-04-04T18:57:48.982Z,46.81
2023-04-04T19:00:20.659Z,46.99
2023-04-04T19:03:11.885Z,47.11
2023-04-04T19:05:49.824Z,47.26
2023-04-04T19:08:20.993Z,47.53
2023-04-04T19:10:57.668Z,47.57
2023-04-04T19:13:30.567Z,47.61
2023-04-04T19:16:20.943Z,47.62
2023-04-04T19:19:23.063Z,47.81
2023-04-04T19:21:58.122Z,48.00
2023-04-04T19:24:42.746Z,48.10
2023-04-04T19:27:14.911Z,48.18
2023-04-04T19:29:50.550Z,48.32
2023-04-04T19:32:32.097Z,48.41
2023-04-04T19:35:03.037Z,48.37
2023-04-04T19:37:32.844Z,48.49
2023-04-04T19:40:40.022Z,48.49
2023-04-04T19:43:22.213Z,48.37
2023-04-04T19:46:05.788Z,48.46
2023-04-04T19:48:59.362Z,48.50
2023-04-04T19:52:12.526Z,48.55
2023-04-04T19:54:51.645Z,48.54
2023-04-04T19:57:28.312Z,48.61
2023-04-04T20:00:34.326Z,48.64
2023-04-04T20:03:35.732Z,48.69
2023-04-04T20:06:28.996Z,48.59
2023-04-04T20:09:10.217Z,48.62
2023-04-04T20:11:49.851Z,48.65
2023-04-04T20:14:29.443Z,48.72
2023-04-04T20:17:02.391Z,48.65
2023-04-04T20:19:37.036Z,48.70
2023-04-04T20:22:17.317Z,48.56
2023-04-04T20:24:48.897Z,48.53
2023-04-04T20:27:27.935Z,48.53
2023-04-04T20:30:13.814Z,48.60
2023-04-04T20:32:47.430Z,48.79
2023-04-04T20:35:32.794Z,48.74
2023-04-04T20:38:08.538Z,48.99
2023-04-04T20:40:57.492Z,48.80
2023-04-04T20:43:31.486Z,48.84
2023-04-04T20:46:07.374Z,48.82
2023-04-04T20:48:41.988Z,48.96
2023-04-04T20:51:33.827Z,49.13
2023-04-04T20:54:08.402Z,49.00
2023-04-04T20:56:52.900Z,49.10
2023-04-04T20:59:44.029Z,49.19
2023-04-04T21:02:24.869Z,49.22
2023-04-04T21:04:56.045Z,49.21
2023-04-04T21:07:46.334Z,49.48
2023-04-04T21:10:33.181Z,49.63
2023-04-04T21:13:13.458Z,49.74
2023-04-04T21:15:48.303Z,49.84
2023-04-04T21:18:40.911Z,49.89
2023-04-04T21:21:59.960Z,50.14
2023-04-04T21:24:49.049Z,50.39
2023-04-04T21:27:39.641Z,50.37
2023-04-04T21:30:46.741Z,50.41
2023-04-04T21:33:20.049Z,50.56
2023-04-04T21:36:01.012Z,50.46
2023-04-04T21:38:35.933Z,50.23
2023-04-04T21:41:27.252Z,50.01
2023-04-04T21:44:13.720Z,50.03
2023-04-04T21:47:00.358Z,49.85
2023-04-04T21:49:42.269Z,49.82
2023-04-04T21:56:12.204Z,49.67
2023-04-04T21:59:11.241Z,49.69
2023-04-04T22:03:36.961Z,49.76
2023-04-04T22:12:40.007Z,49.87
2023-04-04T22:16:31.611Z,50.03
2023-04-04T22:54:39.112Z,52.08
2023-04-04T22:57:51.948Z,52.14
2023-04-04T23:00:36.494Z,52.54
2023-04-04T23:03:24.124Z,52.74
2023-04-04T23:06:17.046Z,52.92
2023-04-04T23:09:27.959Z,52.93
2023-04-04T23:12:11.567Z,53.14
2023-04-04T23:14:52.410Z,53.29
2023-04-04T23:17:31.233Z,53.63
2023-04-04T23:20:29.292Z,53.91
2023-04-04T23:23:02.855Z,54.15
2023-04-04T23:31:22.499Z,54.90
2023-04-04T23:35:20.860Z,55.08
2023-04-04T23:38:00.300Z,55.34
2023-04-04T23:40:35.236Z,55.58
2023-04-04T23:43:08.066Z,55.69
2023-04-04T23:45:46.572Z,55.84
2023-04-04T23:48:33.067Z,56.01
2023-04-04T23:51:15.526Z,56.19
2023-04-04T23:53:51.095Z,56.43
2023-04-04T23:56:23.859Z,56.78
2023-04-04T23:58:58.967Z,56.85
